Air Navigation Services of Czech Republic
Airport: LKPR Updated:  22.05.2019 02:30:26  UTC
 METAR LKPR 22.05. 02:30 ...
METAR LKPR 220230Z 28009KT 9999 FEW013 13/11 Q1009 NOSIG RMK REG QNH 1002=
 TAF LKPR 21.05. 23:00 ...
TAF LKPR 212300Z 2200/2306 26005KT 9999 SCT036      TEMPO 2200/2206 6000 SHRA BKN020TCU      PROB40 TEMPO 2200/2204 TSRA BKN017CB      BECMG 2206/2208 27014KT      TEMPO 2208/2220 32015G30KT 6000 RA SCT007 OVC016=